PWSweather.com
Personal Weather Stations
Station Observations
TEOWRC
Pt, CampotizzoroIT 51028

PtCampotizzoroIT 51028

Lat: 44.039426, Lon: 10.870519999999942

Elevation: 0

Station Type: Davis Vantage Vue

http://www.meteocampotizzoro.it/

Latest ConditionsUpdated 9:00:03 AM GMT+01:01 Thursday, Dec 12, 2019
Currently Today's Max Today's Min Today's Average
Temperature 28.0°F-2.2°C 30.5°F-0.8°C 28.0°F-2.2°C 29.8°F-1.2°C
Dew Point 27.0°F-2.8°C 29.5°F-1.4°C 26.3°F-3.2°C 28.3°F-2.1°C
Winds 2.3 mph NNW3.7 kmh NNW 3.5 mph -5.6 kmh - - 0.3 mph 0.5 kmh
Wind Gusts 3.5 mph5.6 kmh 8.1 mph13.0 kmh - -
Humidity 96% 97% 91% 94%
Pressure 29.66 in1004.4 mb 29.78 in1008.5 mb 29.65 in1004.1 mb -
Hour Temp Dew Point Humidity Winds Wind Gusts Pressure Precip Precip Rate Daily Precip Total
09:00 AM 28.0°F-2.2°C 27.0°F-2.8°C 96% 2.3 mph NNW3.7 kmh NNW 3.5 mph5.6 kmh 29.66 in1004.4 mb - 0.00 in0.0 mm 0.00 in0.0 mm
08:55 AM 28.2°F-2.1°C 27.2°F-2.7°C 96% 3.5 mph NW5.6 kmh NW 5.8 mph9.3 kmh 29.65 in1004.1 mb - 0.00 in0.0 mm 0.00 in0.0 mm
08:50 AM 28.3°F-2.1°C 27.3°F-2.6°C 96% 2.3 mph NW3.7 kmh NW 5.8 mph9.3 kmh 29.66 in1004.4 mb - 0.00 in0.0 mm 0.00 in0.0 mm
08:45 AM 28.3°F-2.1°C 27.3°F-2.6°C 96% 3.5 mph NW5.6 kmh NW 5.8 mph9.3 kmh 29.66 in1004.4 mb - 0.00 in0.0 mm 0.00 in0.0 mm
08:40 AM 28.4°F-2.0°C 27.4°F-2.6°C 96% 2.3 mph WNW3.7 kmh WNW 6.9 mph11.1 kmh 29.66 in1004.4 mb - 0.00 in0.0 mm 0.00 in0.0 mm
08:35 AM 28.5°F-1.9°C 27.5°F-2.5°C 96% 2.3 mph NW3.7 kmh NW 4.6 mph7.4 kmh 29.66 in1004.4 mb - 0.00 in0.0 mm 0.00 in0.0 mm
08:30 AM 28.6°F-1.9°C 27.6°F-2.4°C 96% 2.3 mph WNW3.7 kmh WNW 8.1 mph13.0 kmh 29.66 in1004.4 mb - 0.00 in0.0 mm 0.00 in0.0 mm
08:25 AM 28.7°F-1.8°C 27.7°F-2.4°C 96% 1.2 mph NW1.9 kmh NW 3.5 mph5.6 kmh 29.66 in1004.4 mb - 0.00 in0.0 mm 0.00 in0.0 mm
08:20 AM 28.8°F-1.8°C 27.8°F-2.3°C 96% 1.2 mph WNW1.9 kmh WNW 4.6 mph7.4 kmh 29.66 in1004.4 mb - 0.00 in0.0 mm 0.00 in0.0 mm
08:15 AM 29.0°F-1.7°C 28.0°F-2.2°C 96% 3.5 mph NW5.6 kmh NW 4.6 mph7.4 kmh 29.66 in1004.4 mb - 0.00 in0.0 mm 0.00 in0.0 mm
08:10 AM 29.1°F-1.6°C 28.4°F-2.0°C 97% 1.2 mph E1.9 kmh E 2.3 mph3.7 kmh 29.66 in1004.4 mb - 0.00 in0.0 mm 0.00 in0.0 mm
08:05 AM 29.1°F-1.6°C 28.4°F-2.0°C 97% Calm Calm 1.2 mph1.9 kmh 29.65 in1004.1 mb - 0.00 in0.0 mm 0.00 in0.0 mm
08:00 AM 29.1°F-1.6°C 28.1°F-2.2°C 96% 1.2 mph W1.9 kmh W 1.2 mph1.9 kmh 29.65 in1004.1 mb - 0.00 in0.0 mm 0.00 in0.0 mm
07:55 AM 29.2°F-1.6°C 28.2°F-2.1°C 96% Calm Calm -- 29.65 in1004.1 mb - 0.00 in0.0 mm 0.00 in0.0 mm
07:50 AM 29.3°F-1.5°C 28.3°F-2.1°C 96% Calm Calm -- 29.65 in1004.1 mb - 0.00 in0.0 mm 0.00 in0.0 mm
07:45 AM 29.4°F-1.4°C 28.4°F-2.0°C 96% Calm Calm 1.2 mph1.9 kmh 29.65 in1004.1 mb - 0.00 in0.0 mm 0.00 in0.0 mm
07:40 AM 29.5°F-1.4°C 28.5°F-1.9°C 96% 1.2 mph N1.9 kmh N 2.3 mph3.7 kmh 29.65 in1004.1 mb - 0.00 in0.0 mm 0.00 in0.0 mm
07:35 AM 29.6°F-1.3°C 28.6°F-1.9°C 96% Calm Calm -- 29.65 in1004.1 mb - 0.00 in0.0 mm 0.00 in0.0 mm
07:30 AM 29.7°F-1.3°C 28.7°F-1.8°C 96% Calm Calm -- 29.65 in1004.1 mb - 0.00 in0.0 mm 0.00 in0.0 mm
07:25 AM 29.7°F-1.3°C 28.7°F-1.8°C 96% Calm Calm -- 29.66 in1004.4 mb - 0.00 in0.0 mm 0.00 in0.0 mm
07:20 AM 29.7°F-1.3°C 28.7°F-1.8°C 96% Calm Calm -- 29.65 in1004.1 mb - 0.00 in0.0 mm 0.00 in0.0 mm
07:15 AM 29.7°F-1.3°C 28.7°F-1.8°C 96% Calm Calm -- 29.66 in1004.4 mb - 0.00 in0.0 mm 0.00 in0.0 mm
07:10 AM 29.8°F-1.2°C 28.8°F-1.8°C 96% Calm Calm -- 29.66 in1004.4 mb - 0.00 in0.0 mm 0.00 in0.0 mm
07:05 AM 29.8°F-1.2°C 28.8°F-1.8°C 96% Calm Calm 1.2 mph1.9 kmh 29.66 in1004.4 mb - 0.00 in0.0 mm 0.00 in0.0 mm
07:00 AM 29.9°F-1.2°C 28.9°F-1.7°C 96% Calm Calm -- 29.66 in1004.4 mb - 0.00 in0.0 mm 0.00 in0.0 mm
06:55 AM 30.0°F-1.1°C 29.0°F-1.7°C 96% Calm Calm 1.2 mph1.9 kmh 29.66 in1004.4 mb - 0.00 in0.0 mm 0.00 in0.0 mm
06:50 AM 30.1°F-1.1°C 29.1°F-1.6°C 96% Calm Calm 2.3 mph3.7 kmh 29.66 in1004.4 mb - 0.00 in0.0 mm 0.00 in0.0 mm
06:45 AM 30.2°F-1.0°C 29.2°F-1.6°C 96% Calm Calm -- 29.65 in1004.1 mb - 0.00 in0.0 mm 0.00 in0.0 mm
06:40 AM 30.3°F-0.9°C 29.3°F-1.5°C 96% Calm Calm -- 29.66 in1004.4 mb - 0.00 in0.0 mm 0.00 in0.0 mm
06:35 AM 30.3°F-0.9°C 29.3°F-1.5°C 96% Calm Calm -- 29.65 in1004.1 mb - 0.00 in0.0 mm 0.00 in0.0 mm
06:30 AM 30.3°F-0.9°C 29.3°F-1.5°C 96% Calm Calm -- 29.66 in1004.4 mb - 0.00 in0.0 mm 0.00 in0.0 mm
06:25 AM 30.4°F-0.9°C 29.4°F-1.4°C 96% Calm Calm -- 29.66 in1004.4 mb - 0.00 in0.0 mm 0.00 in0.0 mm
06:20 AM 30.4°F-0.9°C 29.4°F-1.4°C 96% Calm Calm -- 29.66 in1004.4 mb - 0.00 in0.0 mm 0.00 in0.0 mm
06:15 AM 30.4°F-0.9°C 29.4°F-1.4°C 96% Calm Calm -- 29.66 in1004.4 mb - 0.00 in0.0 mm 0.00 in0.0 mm
06:10 AM 30.4°F-0.9°C 29.4°F-1.4°C 96% Calm Calm -- 29.66 in1004.4 mb - 0.00 in0.0 mm 0.00 in0.0 mm
06:05 AM 30.4°F-0.9°C 29.4°F-1.4°C 96% Calm Calm -- 29.66 in1004.4 mb - 0.00 in0.0 mm 0.00 in0.0 mm
06:00 AM 30.4°F-0.9°C 29.4°F-1.4°C 96% Calm Calm -- 29.66 in1004.4 mb - 0.00 in0.0 mm 0.00 in0.0 mm
05:55 AM 30.4°F-0.9°C 29.4°F-1.4°C 96% Calm Calm -- 29.66 in1004.4 mb - 0.00 in0.0 mm 0.00 in0.0 mm
05:50 AM 30.4°F-0.9°C 29.4°F-1.4°C 96% Calm Calm -- 29.66 in1004.4 mb - 0.00 in0.0 mm 0.00 in0.0 mm
05:45 AM 30.4°F-0.9°C 29.4°F-1.4°C 96% Calm Calm -- 29.66 in1004.4 mb - 0.00 in0.0 mm 0.00 in0.0 mm
05:40 AM 30.4°F-0.9°C 29.4°F-1.4°C 96% Calm Calm -- 29.66 in1004.4 mb - 0.00 in0.0 mm 0.00 in0.0 mm
05:35 AM 30.4°F-0.9°C 29.4°F-1.4°C 96% Calm Calm -- 29.66 in1004.4 mb - 0.00 in0.0 mm 0.00 in0.0 mm
05:30 AM 30.4°F-0.9°C 29.4°F-1.4°C 96% Calm Calm -- 29.66 in1004.4 mb - 0.00 in0.0 mm 0.00 in0.0 mm
05:25 AM 30.5°F-0.8°C 29.5°F-1.4°C 96% Calm Calm -- 29.66 in1004.4 mb - 0.00 in0.0 mm 0.00 in0.0 mm
05:20 AM 30.5°F-0.8°C 29.5°F-1.4°C 96% Calm Calm -- 29.67 in1004.7 mb - 0.00 in0.0 mm 0.00 in0.0 mm
05:15 AM 30.5°F-0.8°C 29.5°F-1.4°C 96% Calm Calm -- 29.67 in1004.7 mb - 0.00 in0.0 mm 0.00 in0.0 mm
05:10 AM 30.5°F-0.8°C 29.5°F-1.4°C 96% Calm Calm -- 29.66 in1004.4 mb - 0.00 in0.0 mm 0.00 in0.0 mm
05:05 AM 30.5°F-0.8°C 29.5°F-1.4°C 96% Calm Calm -- 29.67 in1004.7 mb - 0.00 in0.0 mm 0.00 in0.0 mm
05:00 AM 30.4°F-0.9°C 29.2°F-1.6°C 95% Calm Calm -- 29.68 in1005.1 mb - 0.00 in0.0 mm 0.00 in0.0 mm
04:55 AM 30.4°F-0.9°C 29.1°F-1.6°C 95% Calm Calm -- 29.68 in1005.1 mb - 0.00 in0.0 mm 0.00 in0.0 mm
04:50 AM 30.4°F-0.9°C 29.1°F-1.6°C 95% Calm Calm -- 29.68 in1005.1 mb - 0.00 in0.0 mm 0.00 in0.0 mm
04:45 AM 30.4°F-0.9°C 29.1°F-1.6°C 95% Calm Calm -- 29.68 in1005.1 mb - 0.00 in0.0 mm 0.00 in0.0 mm
04:40 AM 30.4°F-0.9°C 29.1°F-1.6°C 95% Calm Calm -- 29.68 in1005.1 mb - 0.00 in0.0 mm 0.00 in0.0 mm
04:35 AM 30.4°F-0.9°C 29.1°F-1.6°C 95% Calm Calm -- 29.69 in1005.4 mb - 0.00 in0.0 mm 0.00 in0.0 mm
04:30 AM 30.4°F-0.9°C 29.1°F-1.6°C 95% Calm Calm -- 29.69 in1005.4 mb - 0.00 in0.0 mm 0.00 in0.0 mm
04:25 AM 30.3°F-0.9°C 29.1°F-1.6°C 95% Calm Calm -- 29.69 in1005.4 mb - 0.00 in0.0 mm 0.00 in0.0 mm
04:20 AM 30.3°F-0.9°C 29.0°F-1.7°C 95% Calm Calm -- 29.69 in1005.4 mb - 0.00 in0.0 mm 0.00 in0.0 mm
04:15 AM 30.3°F-0.9°C 28.8°F-1.8°C 94% Calm Calm -- 29.69 in1005.4 mb - 0.00 in0.0 mm 0.00 in0.0 mm
04:10 AM 30.3°F-0.9°C 28.8°F-1.8°C 94% Calm Calm -- 29.70 in1005.8 mb - 0.00 in0.0 mm 0.00 in0.0 mm
04:05 AM 30.3°F-0.9°C 28.8°F-1.8°C 94% Calm Calm -- 29.70 in1005.8 mb - 0.00 in0.0 mm 0.00 in0.0 mm
04:00 AM 30.3°F-0.9°C 28.8°F-1.8°C 94% Calm Calm -- 29.70 in1005.8 mb - 0.00 in0.0 mm 0.00 in0.0 mm
03:55 AM 30.3°F-0.9°C 28.8°F-1.8°C 94% Calm Calm -- 29.70 in1005.8 mb - 0.00 in0.0 mm 0.00 in0.0 mm
03:50 AM 30.3°F-0.9°C 28.5°F-1.9°C 93% Calm Calm -- 29.70 in1005.8 mb - 0.00 in0.0 mm 0.00 in0.0 mm
03:45 AM 30.4°F-0.9°C 28.6°F-1.9°C 93% Calm Calm -- 29.70 in1005.8 mb - 0.00 in0.0 mm 0.00 in0.0 mm
03:40 AM 30.4°F-0.9°C 28.6°F-1.9°C 93% Calm Calm -- 29.70 in1005.8 mb - 0.00 in0.0 mm 0.00 in0.0 mm
03:35 AM 30.4°F-0.9°C 28.6°F-1.9°C 93% Calm Calm -- 29.71 in1006.1 mb - 0.00 in0.0 mm 0.00 in0.0 mm
03:30 AM 30.4°F-0.9°C 28.6°F-1.9°C 93% Calm Calm -- 29.71 in1006.1 mb - 0.00 in0.0 mm 0.00 in0.0 mm
03:25 AM 30.4°F-0.9°C 28.6°F-1.9°C 93% Calm Calm -- 29.71 in1006.1 mb - 0.00 in0.0 mm 0.00 in0.0 mm
03:20 AM 30.4°F-0.9°C 28.6°F-1.9°C 93% Calm Calm -- 29.71 in1006.1 mb - 0.00 in0.0 mm 0.00 in0.0 mm
03:15 AM 30.3°F-0.9°C 28.5°F-1.9°C 93% Calm Calm -- 29.71 in1006.1 mb - 0.00 in0.0 mm 0.00 in0.0 mm
03:10 AM 30.3°F-0.9°C 28.5°F-1.9°C 93% Calm Calm -- 29.72 in1006.4 mb - 0.00 in0.0 mm 0.00 in0.0 mm
03:05 AM 30.3°F-0.9°C 28.5°F-1.9°C 93% Calm Calm -- 29.72 in1006.4 mb - 0.00 in0.0 mm 0.00 in0.0 mm
03:00 AM 30.4°F-0.9°C 28.3°F-2.1°C 92% Calm Calm -- 29.72 in1006.4 mb - 0.00 in0.0 mm 0.00 in0.0 mm
02:55 AM 30.4°F-0.9°C 28.3°F-2.1°C 92% Calm Calm -- 29.72 in1006.4 mb - 0.00 in0.0 mm 0.00 in0.0 mm
02:50 AM 30.3°F-0.9°C 28.3°F-2.1°C 92% Calm Calm -- 29.73 in1006.8 mb - 0.00 in0.0 mm 0.00 in0.0 mm
02:45 AM 30.3°F-0.9°C 28.3°F-2.1°C 92% Calm Calm -- 29.73 in1006.8 mb - 0.00 in0.0 mm 0.00 in0.0 mm
02:40 AM 30.4°F-0.9°C 28.4°F-2.0°C 92% Calm Calm -- 29.73 in1006.8 mb - 0.00 in0.0 mm 0.00 in0.0 mm
02:35 AM 30.4°F-0.9°C 28.1°F-2.2°C 91% Calm Calm -- 29.73 in1006.8 mb - 0.00 in0.0 mm 0.00 in0.0 mm
02:30 AM 30.4°F-0.9°C 28.1°F-2.2°C 91% Calm Calm -- 29.73 in1006.8 mb - 0.00 in0.0 mm 0.00 in0.0 mm
02:25 AM 30.4°F-0.9°C 28.1°F-2.2°C 91% Calm Calm -- 29.74 in1007.1 mb - 0.00 in0.0 mm 0.00 in0.0 mm
02:20 AM 30.3°F-0.9°C 28.0°F-2.2°C 91% Calm Calm -- 29.74 in1007.1 mb - 0.00 in0.0 mm 0.00 in0.0 mm
02:15 AM 30.4°F-0.9°C 28.1°F-2.2°C 91% Calm Calm -- 29.74 in1007.1 mb - 0.00 in0.0 mm 0.00 in0.0 mm
02:10 AM 30.4°F-0.9°C 28.1°F-2.2°C 91% Calm Calm -- 29.74 in1007.1 mb - 0.00 in0.0 mm 0.00 in0.0 mm
02:05 AM 30.4°F-0.9°C 28.1°F-2.2°C 91% Calm Calm -- 29.74 in1007.1 mb - 0.00 in0.0 mm 0.00 in0.0 mm
02:00 AM 30.4°F-0.9°C 28.1°F-2.2°C 91% Calm Calm -- 29.74 in1007.1 mb - 0.00 in0.0 mm 0.00 in0.0 mm
01:55 AM 30.4°F-0.9°C 28.1°F-2.2°C 91% Calm Calm -- 29.74 in1007.1 mb - 0.00 in0.0 mm 0.00 in0.0 mm
01:50 AM 30.3°F-0.9°C 28.0°F-2.2°C 91% Calm Calm -- 29.74 in1007.1 mb - 0.00 in0.0 mm 0.00 in0.0 mm
01:45 AM 30.3°F-0.9°C 28.0°F-2.2°C 91% Calm Calm -- 29.74 in1007.1 mb - 0.00 in0.0 mm 0.00 in0.0 mm
01:40 AM 30.2°F-1.0°C 27.9°F-2.3°C 91% Calm Calm -- 29.74 in1007.1 mb - 0.00 in0.0 mm 0.00 in0.0 mm
01:35 AM 30.0°F-1.1°C 27.7°F-2.4°C 91% Calm Calm -- 29.74 in1007.1 mb - 0.00 in0.0 mm 0.00 in0.0 mm
01:30 AM 29.8°F-1.2°C 27.5°F-2.5°C 91% Calm Calm -- 29.74 in1007.1 mb - 0.00 in0.0 mm 0.00 in0.0 mm
01:25 AM 29.6°F-1.3°C 27.6°F-2.4°C 92% Calm Calm -- 29.74 in1007.1 mb - 0.00 in0.0 mm 0.00 in0.0 mm
01:20 AM 29.4°F-1.4°C 27.4°F-2.6°C 92% Calm Calm -- 29.75 in1007.5 mb - 0.00 in0.0 mm 0.00 in0.0 mm
01:15 AM 29.2°F-1.6°C 27.2°F-2.7°C 92% Calm Calm -- 29.75 in1007.5 mb - 0.00 in0.0 mm 0.00 in0.0 mm
01:10 AM 29.1°F-1.6°C 27.1°F-2.7°C 92% Calm Calm -- 29.75 in1007.5 mb - 0.00 in0.0 mm 0.00 in0.0 mm
01:05 AM 28.9°F-1.7°C 26.9°F-2.8°C 92% Calm Calm -- 29.75 in1007.5 mb - 0.00 in0.0 mm 0.00 in0.0 mm
01:00 AM 28.8°F-1.8°C 26.7°F-2.9°C 92% Calm Calm -- 29.75 in1007.5 mb - 0.00 in0.0 mm 0.00 in0.0 mm
12:55 AM 28.6°F-1.9°C 26.6°F-3.0°C 92% Calm Calm -- 29.75 in1007.5 mb - 0.00 in0.0 mm 0.00 in0.0 mm
12:50 AM 28.6°F-1.9°C 26.5°F-3.1°C 92% Calm Calm -- 29.76 in1007.8 mb - 0.00 in0.0 mm 0.00 in0.0 mm
12:45 AM 28.4°F-2.0°C 26.4°F-3.1°C 92% Calm Calm -- 29.76 in1007.8 mb - 0.00 in0.0 mm 0.00 in0.0 mm
12:40 AM 28.3°F-2.1°C 26.3°F-3.2°C 92% Calm Calm 1.2 mph1.9 kmh 29.77 in1008.1 mb - 0.00 in0.0 mm 0.00 in0.0 mm
12:35 AM 28.3°F-2.1°C 26.3°F-3.2°C 92% Calm Calm -- 29.77 in1008.1 mb - 0.00 in0.0 mm 0.00 in0.0 mm
12:30 AM 28.3°F-2.1°C 26.3°F-3.2°C 92% Calm Calm -- 29.77 in1008.1 mb - 0.00 in0.0 mm 0.00 in0.0 mm
12:25 AM 28.3°F-2.1°C 26.3°F-3.2°C 92% Calm Calm -- 29.77 in1008.1 mb - 0.00 in0.0 mm 0.00 in0.0 mm
12:20 AM 28.4°F-2.0°C 26.4°F-3.1°C 92% Calm Calm -- 29.77 in1008.1 mb - 0.00 in0.0 mm 0.00 in0.0 mm
12:15 AM 28.4°F-2.0°C 26.4°F-3.1°C 92% Calm Calm -- 29.78 in1008.5 mb - 0.00 in0.0 mm 0.00 in0.0 mm
12:10 AM 28.4°F-2.0°C 26.4°F-3.1°C 92% Calm Calm -- 29.78 in1008.5 mb - 0.00 in0.0 mm 0.00 in0.0 mm
12:05 AM 28.4°F-2.0°C 26.4°F-3.1°C 92% Calm Calm -- 29.78 in1008.5 mb - 0.00 in0.0 mm 0.00 in0.0 mm
12:00 AM 28.3°F-2.1°C 26.3°F-3.2°C 92% Calm Calm -- 29.78 in1008.5 mb - 0.00 in0.0 mm 0.00 in0.0 mm